TAF and METAR

Decoding for American and Canadian METARs and TAFs is not fully implemented.

Could not understand the following METAR

KBOS 192054Z 27006KT 10SM FEW250 16/01 A2998 RMK AO2 SLP151 T01610006 55000

TAF for Logan International Airport

KBOS 191728Z 1918/2024 29008KT P6SM SKC FM201700 14006KT P6SM BKN250
Report created 19. okt 19:28

between 19. okt 20:00 - 20. okt 02:00

wind 8 knots from WNW (290°)
Logan International Airport in United States of America at 6m

Latest 5 airports